Terminal Aerodrome Forecast
Issued by NWS Duluth, MN

Home | Current Version | Previous Version | Text Only | Print | Product List | Glossary On
Versions: 1 2 3 4 5 6 7 8 9 10 11 12 13 14 15 16 17 18 19 20 21 22 23 24 25
000
FTUS43 KDLH 171700
TAFINL
TAF
KINL 171734Z 1718/1818 11010KT P6SM SCT019
     FM172100 16007KT P6SM BKN019 OVC050
     FM180500 15003KT P6SM VCSH OVC025
     FM181000 13003KT 4SM -RA BR OVC007
     FM181600 14004KT 4SM -RA OVC015=

USA.gov is the U.S. government's official web portal to all federal, state and local government web resources and services.